Weather at Holstebro Glider Field

Public forecast

Using degrees Celsius for public forecast. Weather courtesy of forecast.io.

Closest aviation weather report (METAR) to Holstebro Glider Field

Closest report is Karup Airport, 17.9 nm (33.2 km) E. Retrieved 2020/10/29 16:20 UTC (0 seconds ago):

EKKA 291620Z AUTO 20004KT 9999 FEW049/// 07/06 Q1008

Closest aviation forecast (TAF) to Holstebro Glider Field

Closest forecast is Karup Airport, 17.9 nm (33.2 km) E. Retrieved 2020/10/29 15:31 UTC (46 minutes ago):

TAF EKKA 291404Z 2915/3015 26008KT 9999 SCT030 TEMPO 2915/2919 -SHRA FEW020TCU BECMG 2922/3001 17008KT TEMPO 3000/3002 4000 -RADZ BKN008 BECMG 3002/3004 4000 RADZ BR BKN008 TEMPO 3004/3015 1800 BKN003